Terminal Aerodrome Forecast
Issued by NWS Hastings, NE

Home | Current Version | Previous Version | Text Only | Print | Product List | Glossary On
Versions: 1 2 3 4 5 6 7 8 9 10 11 12 13 14 15 16 17 18 19 20 21 22 23 24 25 26 27 28 29 30 31 32 33
000
FTUS43 KGID 010308 AAA
TAFGRI
TAF AMD
KGRI 010308Z 0103/0124 14006KT 5SM BR BKN004
     FM010330 VRB03KT 2SM BR BKN002
      TEMPO 0104/0105 1/2SM FG OVC001
     FM010500 VRB03KT 1/2SM FG OVC001
     FM011300 VRB03KT 5SM BR BKN004
     FM011500 27006KT P6SM SCT050 BKN250=

USA.gov is the U.S. government's official web portal to all federal, state and local government web resources and services.